Terminal Aerodrome Forecast
Issued by NWS Charleston, WV

Current Version | Previous Version | Graphics & Text | Print | Product List | Glossary On
Versions: 1 2 3 4 5 6 7 8 9 10 11 12 13 14 15 16 17 18 19 20 21 22 23
642
FTUS41 KRLX 211120
TAFBKW
TAF
KBKW 211120Z 2112/2212 15008KT P6SM SCT250
     FM211400 18008KT P6SM FEW025 SCT250
     FM211700 21009G17KT P6SM FEW030 SCT035
     FM211800 21010G21KT P6SM SCT035
     FM212300 20009G15KT P6SM BKN025
     FM220200 24007KT P6SM BKN015
     FM220600 27010G17KT P6SM BKN025
     FM221100 32007KT P6SM BKN015=

USA.gov is the U.S. government's official web portal to all federal, state and local government web resources and services.